sensor_id;sensor_type;location;lat;lon;timestamp;pressure;altitude;pressure_sealevel;temperature;humidity
8641;BME280;4358;42.100;25.222;2023-06-24T00:02:01;100006.06;;;22.22;100.00
8641;BME280;4358;42.100;25.222;2023-06-24T00:04:28;99989.66;;;22.23;100.00
8641;BME280;4358;42.100;25.222;2023-06-24T00:06:55;100005.31;;;22.36;100.00
8641;BME280;4358;42.100;25.222;2023-06-24T00:09:24;100005.94;;;22.46;100.00
8641;BME280;4358;42.100;25.222;2023-06-24T00:11:51;100000.97;;;22.58;100.00
8641;BME280;4358;42.100;25.222;2023-06-24T00:14:17;100003.28;;;22.69;100.00
8641;BME280;4358;42.100;25.222;2023-06-24T00:16:46;100004.69;;;22.65;100.00
8641;BME280;4358;42.100;25.222;2023-06-24T00:19:16;100001.09;;;22.72;100.00
8641;BME280;4358;42.100;25.222;2023-06-24T00:21:44;99994.66;;;22.73;100.00
8641;BME280;4358;42.100;25.222;2023-06-24T00:24:11;100001.06;;;22.80;100.00
8641;BME280;4358;42.100;25.222;2023-06-24T00:26:37;100002.16;;;22.71;100.00
8641;BME280;4358;42.100;25.222;2023-06-24T00:29:04;99993.66;;;22.66;100.00
8641;BME280;4358;42.100;25.222;2023-06-24T00:31:31;99993.19;;;22.71;100.00
8641;BME280;4358;42.100;25.222;2023-06-24T00:33:58;99997.03;;;22.68;100.00
8641;BME280;4358;42.100;25.222;2023-06-24T00:36:26;99997.41;;;22.65;100.00
8641;BME280;4358;42.100;25.222;2023-06-24T00:38:54;99998.75;;;22.61;100.00
8641;BME280;4358;42.100;25.222;2023-06-24T00:41:22;100004.91;;;22.55;100.00
8641;BME280;4358;42.100;25.222;2023-06-24T00:43:49;100008.31;;;22.49;100.00
8641;BME280;4358;42.100;25.222;2023-06-24T00:46:16;99997.81;;;22.46;100.00
8641;BME280;4358;42.100;25.222;2023-06-24T00:48:45;99997.88;;;22.38;100.00
8641;BME280;4358;42.100;25.222;2023-06-24T00:51:12;99997.56;;;22.33;100.00
8641;BME280;4358;42.100;25.222;2023-06-24T00:53:40;99997.63;;;22.17;100.00
8641;BME280;4358;42.100;25.222;2023-06-24T00:56:07;100001.91;;;22.03;100.00
8641;BME280;4358;42.100;25.222;2023-06-24T00:58:35;99994.63;;;22.04;100.00
8641;BME280;4358;42.100;25.222;2023-06-24T01:01:04;100001.06;;;22.03;100.00
8641;BME280;4358;42.100;25.222;2023-06-24T01:03:31;99995.34;;;21.98;100.00
8641;BME280;4358;42.100;25.222;2023-06-24T01:05:58;99995.50;;;21.96;100.00
8641;BME280;4358;42.100;25.222;2023-06-24T01:08:25;99991.97;;;21.87;100.00
8641;BME280;4358;42.100;25.222;2023-06-24T01:10:53;99994.34;;;21.82;100.00
8641;BME280;4358;42.100;25.222;2023-06-24T01:13:20;99994.66;;;21.79;100.00
8641;BME280;4358;42.100;25.222;2023-06-24T01:15:48;99995.53;;;21.72;100.00
8641;BME280;4358;42.100;25.222;2023-06-24T01:18:21;99989.28;;;21.71;100.00
8641;BME280;4358;42.100;25.222;2023-06-24T01:20:51;99984.22;;;21.76;100.00
8641;BME280;4358;42.100;25.222;2023-06-24T01:23:48;99989.63;;;21.76;100.00
8641;BME280;4358;42.100;25.222;2023-06-24T01:26:34;99996.34;;;21.80;100.00
8641;BME280;4358;42.100;25.222;2023-06-24T01:32:16;99989.97;;;21.65;100.00
8641;BME280;4358;42.100;25.222;2023-06-24T01:34:50;99988.31;;;21.56;100.00
8641;BME280;4358;42.100;25.222;2023-06-24T01:37:25;99992.00;;;21.47;100.00
8641;BME280;4358;42.100;25.222;2023-06-24T01:39:57;99991.00;;;21.48;100.00
8641;BME280;4358;42.100;25.222;2023-06-24T01:42:33;99987.13;;;21.42;100.00
8641;BME280;4358;42.100;25.222;2023-06-24T01:45:02;99984.59;;;21.49;100.00
8641;BME280;4358;42.100;25.222;2023-06-24T01:47:31;99984.72;;;21.64;100.00
8641;BME280;4358;42.100;25.222;2023-06-24T01:49:59;99986.75;;;21.62;100.00
8641;BME280;4358;42.100;25.222;2023-06-24T01:52:29;99996.38;;;21.64;100.00
8641;BME280;4358;42.100;25.222;2023-06-24T01:54:58;99985.59;;;21.64;100.00
8641;BME280;4358;42.100;25.222;2023-06-24T01:57:27;99983.72;;;21.56;100.00
8641;BME280;4358;42.100;25.222;2023-06-24T01:59:56;99982.72;;;21.66;100.00
8641;BME280;4358;42.100;25.222;2023-06-24T02:02:26;99976.13;;;21.68;100.00
8641;BME280;4358;42.100;25.222;2023-06-24T02:04:55;99986.59;;;21.71;100.00
8641;BME280;4358;42.100;25.222;2023-06-24T02:07:23;99986.44;;;21.65;100.00
8641;BME280;4358;42.100;25.222;2023-06-24T02:09:52;99988.63;;;21.61;100.00
8641;BME280;4358;42.100;25.222;2023-06-24T02:12:20;99987.63;;;21.54;100.00
8641;BME280;4358;42.100;25.222;2023-06-24T02:14:49;99986.25;;;21.58;100.00
8641;BME280;4358;42.100;25.222;2023-06-24T02:17:17;99996.56;;;21.54;100.00
8641;BME280;4358;42.100;25.222;2023-06-24T02:19:44;100002.16;;;21.45;100.00
8641;BME280;4358;42.100;25.222;2023-06-24T02:22:12;100001.81;;;21.48;100.00
8641;BME280;4358;42.100;25.222;2023-06-24T02:24:40;100007.22;;;21.40;100.00
8641;BME280;4358;42.100;25.222;2023-06-24T02:27:08;100005.00;;;21.43;100.00
8641;BME280;4358;42.100;25.222;2023-06-24T02:29:36;100014.63;;;21.46;100.00
8641;BME280;4358;42.100;25.222;2023-06-24T02:32:04;100009.22;;;21.38;100.00
8641;BME280;4358;42.100;25.222;2023-06-24T02:34:31;100024.25;;;21.40;100.00
8641;BME280;4358;42.100;25.222;2023-06-24T02:36:58;100017.34;;;21.38;100.00
8641;BME280;4358;42.100;25.222;2023-06-24T02:39:27;100027.97;;;21.39;100.00
8641;BME280;4358;42.100;25.222;2023-06-24T02:41:54;100035.56;;;21.44;100.00
8641;BME280;4358;42.100;25.222;2023-06-24T02:44:21;100036.91;;;21.48;100.00
8641;BME280;4358;42.100;25.222;2023-06-24T02:46:48;100041.47;;;21.39;100.00
8641;BME280;4358;42.100;25.222;2023-06-24T02:49:16;100038.78;;;21.39;100.00
8641;BME280;4358;42.100;25.222;2023-06-24T02:51:44;100043.31;;;21.47;100.00
8641;BME280;4358;42.100;25.222;2023-06-24T02:54:11;100048.72;;;21.55;100.00
8641;BME280;4358;42.100;25.222;2023-06-24T02:56:41;100047.00;;;21.62;100.00
8641;BME280;4358;42.100;25.222;2023-06-24T02:59:09;100046.34;;;21.68;100.00
8641;BME280;4358;42.100;25.222;2023-06-24T03:01:37;100050.03;;;21.67;100.00
8641;BME280;4358;42.100;25.222;2023-06-24T03:04:05;100031.31;;;21.58;100.00
8641;BME280;4358;42.100;25.222;2023-06-24T03:06:32;100052.94;;;21.66;100.00
8641;BME280;4358;42.100;25.222;2023-06-24T03:09:02;100056.97;;;21.62;100.00
8641;BME280;4358;42.100;25.222;2023-06-24T03:11:29;100057.16;;;21.52;100.00
8641;BME280;4358;42.100;25.222;2023-06-24T03:13:59;100054.78;;;21.57;100.00
8641;BME280;4358;42.100;25.222;2023-06-24T03:16:26;100066.59;;;21.72;100.00
8641;BME280;4358;42.100;25.222;2023-06-24T03:18:52;100061.88;;;21.74;100.00
8641;BME280;4358;42.100;25.222;2023-06-24T03:21:19;100067.44;;;21.81;100.00
8641;BME280;4358;42.100;25.222;2023-06-24T03:23:46;100080.09;;;21.88;100.00
8641;BME280;4358;42.100;25.222;2023-06-24T03:26:13;100082.13;;;21.86;100.00
8641;BME280;4358;42.100;25.222;2023-06-24T03:28:40;100075.53;;;21.89;100.00
8641;BME280;4358;42.100;25.222;2023-06-24T03:31:08;100078.25;;;21.97;100.00
8641;BME280;4358;42.100;25.222;2023-06-24T03:33:35;100072.50;;;22.00;100.00
8641;BME280;4358;42.100;25.222;2023-06-24T03:36:02;100068.09;;;21.91;100.00
8641;BME280;4358;42.100;25.222;2023-06-24T03:38:29;100068.31;;;21.98;100.00
8641;BME280;4358;42.100;25.222;2023-06-24T03:40:56;100064.22;;;22.02;100.00
8641;BME280;4358;42.100;25.222;2023-06-24T03:43:24;100061.50;;;22.10;100.00
8641;BME280;4358;42.100;25.222;2023-06-24T03:45:50;100058.47;;;22.13;100.00
8641;BME280;4358;42.100;25.222;2023-06-24T03:48:18;100068.31;;;21.98;100.00
8641;BME280;4358;42.100;25.222;2023-06-24T03:50:45;100074.69;;;21.88;100.00
8641;BME280;4358;42.100;25.222;2023-06-24T03:53:12;100077.91;;;22.00;100.00
8641;BME280;4358;42.100;25.222;2023-06-24T03:55:39;100085.19;;;22.08;100.00
8641;BME280;4358;42.100;25.222;2023-06-24T03:58:06;100083.44;;;22.23;100.00
8641;BME280;4358;42.100;25.222;2023-06-24T04:00:33;100081.22;;;22.34;100.00
8641;BME280;4358;42.100;25.222;2023-06-24T04:03:04;100072.75;;;22.37;100.00
8641;BME280;4358;42.100;25.222;2023-06-24T04:05:34;100076.63;;;22.43;100.00
8641;BME280;4358;42.100;25.222;2023-06-24T04:08:01;100064.81;;;22.36;100.00
8641;BME280;4358;42.100;25.222;2023-06-24T04:10:31;100070.38;;;22.43;100.00
8641;BME280;4358;42.100;25.222;2023-06-24T04:12:58;100061.56;;;22.49;100.00
8641;BME280;4358;42.100;25.222;2023-06-24T04:15:25;100049.84;;;22.56;100.00
8641;BME280;4358;42.100;25.222;2023-06-24T04:17:52;100064.34;;;22.63;100.00
8641;BME280;4358;42.100;25.222;2023-06-24T04:20:19;100072.50;;;22.71;100.00
8641;BME280;4358;42.100;25.222;2023-06-24T04:22:47;100071.41;;;22.80;100.00
8641;BME280;4358;42.100;25.222;2023-06-24T04:25:14;100072.75;;;22.85;100.00
8641;BME280;4358;42.100;25.222;2023-06-24T04:27:41;100079.25;;;22.98;100.00
8641;BME280;4358;42.100;25.222;2023-06-24T04:30:08;100083.31;;;23.02;100.00
8641;BME280;4358;42.100;25.222;2023-06-24T04:32:35;100076.66;;;23.13;100.00
8641;BME280;4358;42.100;25.222;2023-06-24T04:35:02;100080.13;;;23.21;100.00
8641;BME280;4358;42.100;25.222;2023-06-24T04:37:30;100087.03;;;23.24;100.00
8641;BME280;4358;42.100;25.222;2023-06-24T04:39:58;100085.31;;;23.31;100.00
8641;BME280;4358;42.100;25.222;2023-06-24T04:42:25;100083.19;;;23.41;100.00
8641;BME280;4358;42.100;25.222;2023-06-24T04:44:52;100081.84;;;23.45;100.00
8641;BME280;4358;42.100;25.222;2023-06-24T04:47:19;100075.66;;;23.59;100.00
8641;BME280;4358;42.100;25.222;2023-06-24T04:49:46;100087.72;;;23.72;100.00
8641;BME280;4358;42.100;25.222;2023-06-24T04:52:13;100073.38;;;23.86;100.00
8641;BME280;4358;42.100;25.222;2023-06-24T04:54:40;100078.53;;;23.95;100.00
8641;BME280;4358;42.100;25.222;2023-06-24T04:57:23;100074.81;;;23.96;100.00
8641;BME280;4358;42.100;25.222;2023-06-24T04:59:50;100077.03;;;23.93;100.00
8641;BME280;4358;42.100;25.222;2023-06-24T05:02:17;100077.53;;;24.11;100.00
8641;BME280;4358;42.100;25.222;2023-06-24T05:04:44;100077.53;;;24.11;100.00
8641;BME280;4358;42.100;25.222;2023-06-24T05:07:10;100077.66;;;24.18;100.00
8641;BME280;4358;42.100;25.222;2023-06-24T05:09:37;100081.03;;;24.34;100.00
8641;BME280;4358;42.100;25.222;2023-06-24T05:12:05;100085.25;;;24.22;100.00
8641;BME280;4358;42.100;25.222;2023-06-24T05:14:34;100088.25;;;24.27;100.00
8641;BME280;4358;42.100;25.222;2023-06-24T05:17:00;100097.50;;;24.33;100.00
8641;BME280;4358;42.100;25.222;2023-06-24T05:19:27;100096.09;;;24.52;100.00
8641;BME280;4358;42.100;25.222;2023-06-24T05:21:54;100096.53;;;24.55;100.00
8641;BME280;4358;42.100;25.222;2023-06-24T05:24:21;100096.53;;;24.55;100.00
8641;BME280;4358;42.100;25.222;2023-06-24T05:26:50;100096.91;;;24.67;99.07
8641;BME280;4358;42.100;25.222;2023-06-24T05:29:17;100095.53;;;24.56;96.40
8641;BME280;4358;42.100;25.222;2023-06-24T05:31:45;100082.91;;;24.63;95.41
8641;BME280;4358;42.100;25.222;2023-06-24T05:34:12;100090.75;;;24.58;96.40
8641;BME280;4358;42.100;25.222;2023-06-24T05:36:39;100099.34;;;24.62;99.90
8641;BME280;4358;42.100;25.222;2023-06-24T05:39:06;100110.84;;;24.93;98.33
8641;BME280;4358;42.100;25.222;2023-06-24T05:41:33;100101.16;;;25.20;97.32
8641;BME280;4358;42.100;25.222;2023-06-24T05:44:02;100104.28;;;25.38;96.18
8641;BME280;4358;42.100;25.222;2023-06-24T05:46:29;100109.50;;;25.40;95.18
8641;BME280;4358;42.100;25.222;2023-06-24T05:48:57;100106.19;;;25.59;92.55
8641;BME280;4358;42.100;25.222;2023-06-24T05:51:24;100094.16;;;25.68;90.86
8641;BME280;4358;42.100;25.222;2023-06-24T05:53:51;100116.91;;;25.88;90.67
8641;BME280;4358;42.100;25.222;2023-06-24T05:56:19;100122.00;;;25.98;88.05
8641;BME280;4358;42.100;25.222;2023-06-24T05:58:46;100123.00;;;26.18;85.27
8641;BME280;4358;42.100;25.222;2023-06-24T06:01:12;100126.47;;;26.33;84.72
8641;BME280;4358;42.100;25.222;2023-06-24T06:03:39;100124.09;;;26.51;82.90
8641;BME280;4358;42.100;25.222;2023-06-24T06:06:07;100125.00;;;26.65;82.55
8641;BME280;4358;42.100;25.222;2023-06-24T06:08:34;100125.59;;;26.88;83.27
8641;BME280;4358;42.100;25.222;2023-06-24T06:11:01;100130.63;;;26.91;82.08
8641;BME280;4358;42.100;25.222;2023-06-24T06:13:28;100133.19;;;27.00;81.65
8641;BME280;4358;42.100;25.222;2023-06-24T06:15:55;100132.38;;;27.06;81.98
8641;BME280;4358;42.100;25.222;2023-06-24T06:18:22;100126.53;;;27.22;80.82
8641;BME280;4358;42.100;25.222;2023-06-24T06:20:49;100133.72;;;27.36;78.71
8641;BME280;4358;42.100;25.222;2023-06-24T06:23:17;100134.22;;;27.59;76.33
8641;BME280;4358;42.100;25.222;2023-06-24T06:25:44;100134.22;;;27.66;78.06
8641;BME280;4358;42.100;25.222;2023-06-24T06:28:11;100130.69;;;27.78;76.29
8641;BME280;4358;42.100;25.222;2023-06-24T06:30:38;100120.19;;;27.62;77.82
8641;BME280;4358;42.100;25.222;2023-06-24T06:33:05;100118.09;;;27.84;75.29
8641;BME280;4358;42.100;25.222;2023-06-24T06:35:32;100109.91;;;27.91;74.82
8641;BME280;4358;42.100;25.222;2023-06-24T06:37:58;100119.97;;;27.97;74.60
8641;BME280;4358;42.100;25.222;2023-06-24T06:40:27;100116.63;;;28.08;75.13
8641;BME280;4358;42.100;25.222;2023-06-24T06:42:53;100113.69;;;28.03;74.99
8641;BME280;4358;42.100;25.222;2023-06-24T06:45:20;100109.47;;;28.40;72.75
8641;BME280;4358;42.100;25.222;2023-06-24T06:47:49;100103.56;;;28.62;71.38
8641;BME280;4358;42.100;25.222;2023-06-24T06:50:16;100104.78;;;28.67;70.99
8641;BME280;4358;42.100;25.222;2023-06-24T06:52:43;100102.69;;;28.75;71.44
8641;BME280;4358;42.100;25.222;2023-06-24T06:55:09;100105.19;;;28.83;71.07
8641;BME280;4358;42.100;25.222;2023-06-24T06:57:38;100097.84;;;28.84;71.61
8641;BME280;4358;42.100;25.222;2023-06-24T07:00:05;100097.56;;;28.92;70.57
8641;BME280;4358;42.100;25.222;2023-06-24T07:02:32;100087.47;;;28.99;69.19
8641;BME280;4358;42.100;25.222;2023-06-24T07:05:00;100085.19;;;28.89;72.12
8641;BME280;4358;42.100;25.222;2023-06-24T07:07:27;100088.06;;;29.01;70.54
8641;BME280;4358;42.100;25.222;2023-06-24T07:09:53;100079.81;;;29.14;69.15
8641;BME280;4358;42.100;25.222;2023-06-24T07:12:21;100086.38;;;29.06;69.84
8641;BME280;4358;42.100;25.222;2023-06-24T07:14:50;100087.56;;;29.17;68.80
8641;BME280;4358;42.100;25.222;2023-06-24T07:17:17;100084.88;;;29.11;69.54
8641;BME280;4358;42.100;25.222;2023-06-24T07:19:44;100084.75;;;28.99;70.04
8641;BME280;4358;42.100;25.222;2023-06-24T07:22:11;100087.59;;;28.73;72.30
8641;BME280;4358;42.100;25.222;2023-06-24T07:24:38;100083.09;;;28.85;71.12
8641;BME280;4358;42.100;25.222;2023-06-24T07:27:05;100085.28;;;29.14;69.59
8641;BME280;4358;42.100;25.222;2023-06-24T07:29:32;100076.47;;;29.12;69.01
8641;BME280;4358;42.100;25.222;2023-06-24T07:32:00;100071.41;;;29.47;68.61
8641;BME280;4358;42.100;25.222;2023-06-24T07:34:29;100083.88;;;29.68;68.79
8641;BME280;4358;42.100;25.222;2023-06-24T07:36:56;100082.28;;;29.85;65.97
8641;BME280;4358;42.100;25.222;2023-06-24T07:39:23;100070.53;;;30.09;64.84
8641;BME280;4358;42.100;25.222;2023-06-24T07:41:49;100072.13;;;29.99;63.51
8641;BME280;4358;42.100;25.222;2023-06-24T07:44:17;100075.41;;;29.76;66.29
8641;BME280;4358;42.100;25.222;2023-06-24T07:46:44;100065.91;;;29.78;66.02
8641;BME280;4358;42.100;25.222;2023-06-24T07:49:12;100068.38;;;30.11;65.41
8641;BME280;4358;42.100;25.222;2023-06-24T07:51:39;100064.59;;;30.30;64.32
8641;BME280;4358;42.100;25.222;2023-06-24T07:54:06;100065.72;;;30.48;62.80
8641;BME280;4358;42.100;25.222;2023-06-24T07:56:33;100068.59;;;30.53;61.44
8641;BME280;4358;42.100;25.222;2023-06-24T07:59:00;100082.19;;;30.41;63.98
8641;BME280;4358;42.100;25.222;2023-06-24T08:01:27;100080.53;;;30.40;63.30
8641;BME280;4358;42.100;25.222;2023-06-24T08:03:54;100082.53;;;30.08;65.18
8641;BME280;4358;42.100;25.222;2023-06-24T08:06:22;100082.53;;;30.08;65.20
8641;BME280;4358;42.100;25.222;2023-06-24T08:08:49;100084.97;;;30.16;66.32
8641;BME280;4358;42.100;25.222;2023-06-24T08:11:16;100085.91;;;30.28;63.65
8641;BME280;4358;42.100;25.222;2023-06-24T08:13:43;100078.13;;;30.25;64.67
8641;BME280;4358;42.100;25.222;2023-06-24T08:16:10;100084.22;;;30.27;64.20
8641;BME280;4358;42.100;25.222;2023-06-24T08:18:37;100082.44;;;30.15;64.38
8641;BME280;4358;42.100;25.222;2023-06-24T08:21:04;100079.44;;;30.23;64.99
8641;BME280;4358;42.100;25.222;2023-06-24T08:23:33;100075.88;;;30.22;63.66
8641;BME280;4358;42.100;25.222;2023-06-24T08:25:59;100078.00;;;30.39;62.65
8641;BME280;4358;42.100;25.222;2023-06-24T08:28:26;100074.72;;;30.55;62.06
8641;BME280;4358;42.100;25.222;2023-06-24T08:30:53;100085.19;;;30.40;61.99
8641;BME280;4358;42.100;25.222;2023-06-24T08:33:20;100074.72;;;30.55;61.61
8641;BME280;4358;42.100;25.222;2023-06-24T08:35:47;100083.97;;;30.36;61.11
8641;BME280;4358;42.100;25.222;2023-06-24T08:38:14;100078.88;;;30.57;61.16
8641;BME280;4358;42.100;25.222;2023-06-24T08:40:42;100071.34;;;31.07;59.39
8641;BME280;4358;42.100;25.222;2023-06-24T08:43:09;100073.44;;;31.35;58.48
8641;BME280;4358;42.100;25.222;2023-06-24T08:45:36;100076.09;;;31.83;56.98
8641;BME280;4358;42.100;25.222;2023-06-24T08:48:03;100074.78;;;32.09;54.66
8641;BME280;4358;42.100;25.222;2023-06-24T08:50:33;100068.09;;;32.52;53.74
8641;BME280;4358;42.100;25.222;2023-06-24T08:53:03;100067.47;;;32.61;52.90
8641;BME280;4358;42.100;25.222;2023-06-24T08:55:37;100072.41;;;32.48;53.10
8641;BME280;4358;42.100;25.222;2023-06-24T08:58:07;100064.88;;;32.66;52.68
8641;BME280;4358;42.100;25.222;2023-06-24T09:00:34;100066.81;;;32.66;52.73
8641;BME280;4358;42.100;25.222;2023-06-24T09:03:01;100055.09;;;32.70;52.05
8641;BME280;4358;42.100;25.222;2023-06-24T09:05:28;100065.09;;;32.76;52.56
8641;BME280;4358;42.100;25.222;2023-06-24T09:07:55;100059.59;;;32.76;51.58
8641;BME280;4358;42.100;25.222;2023-06-24T09:10:32;100058.16;;;32.86;51.09
8641;BME280;4358;42.100;25.222;2023-06-24T09:12:59;100061.66;;;32.98;51.09
8641;BME280;4358;42.100;25.222;2023-06-24T09:15:30;100063.63;;;33.14;50.84
8641;BME280;4358;42.100;25.222;2023-06-24T09:17:58;100062.47;;;33.10;50.13
8641;BME280;4358;42.100;25.222;2023-06-24T09:20:26;100043.03;;;33.00;50.33
8641;BME280;4358;42.100;25.222;2023-06-24T09:22:58;100055.69;;;33.01;50.24
8641;BME280;4358;42.100;25.222;2023-06-24T09:25:25;100060.88;;;33.14;49.99
8641;BME280;4358;42.100;25.222;2023-06-24T09:27:53;100058.53;;;33.06;50.90
8641;BME280;4358;42.100;25.222;2023-06-24T09:30:22;100050.00;;;33.19;49.54
8641;BME280;4358;42.100;25.222;2023-06-24T09:32:51;100042.47;;;33.14;50.11
8641;BME280;4358;42.100;25.222;2023-06-24T09:35:19;100042.63;;;33.36;49.53
8641;BME280;4358;42.100;25.222;2023-06-24T09:37:50;100035.16;;;33.82;48.10
8641;BME280;4358;42.100;25.222;2023-06-24T09:40:18;100031.78;;;34.13;48.35
8641;BME280;4358;42.100;25.222;2023-06-24T09:42:55;100035.97;;;34.32;46.78
8641;BME280;4358;42.100;25.222;2023-06-24T09:45:23;100032.41;;;34.54;46.44
8641;BME280;4358;42.100;25.222;2023-06-24T09:47:52;100031.31;;;34.76;46.37
8641;BME280;4358;42.100;25.222;2023-06-24T09:50:19;100025.72;;;34.93;45.80
8641;BME280;4358;42.100;25.222;2023-06-24T09:52:48;100022.31;;;34.86;45.33
8641;BME280;4358;42.100;25.222;2023-06-24T09:55:17;100022.81;;;35.05;45.11
8641;BME280;4358;42.100;25.222;2023-06-24T09:57:45;100022.22;;;35.24;44.71
8641;BME280;4358;42.100;25.222;2023-06-24T10:00:14;100015.75;;;35.41;44.71
8641;BME280;4358;42.100;25.222;2023-06-24T10:02:43;100019.13;;;35.48;44.61
8641;BME280;4358;42.100;25.222;2023-06-24T10:05:12;100003.03;;;35.40;43.71
8641;BME280;4358;42.100;25.222;2023-06-24T10:07:40;99996.19;;;35.42;43.16
8641;BME280;4358;42.100;25.222;2023-06-24T10:10:08;99986.47;;;35.40;43.21
8641;BME280;4358;42.100;25.222;2023-06-24T10:12:35;99992.16;;;35.60;43.41
8641;BME280;4358;42.100;25.222;2023-06-24T10:15:03;99981.06;;;35.87;42.80
8641;BME280;4358;42.100;25.222;2023-06-24T10:17:31;99962.03;;;35.85;42.90
8641;BME280;4358;42.100;25.222;2023-06-24T10:19:58;99961.75;;;35.92;42.92
8641;BME280;4358;42.100;25.222;2023-06-24T10:22:30;99965.25;;;36.14;42.67
8641;BME280;4358;42.100;25.222;2023-06-24T10:24:59;99962.06;;;36.42;41.42
8641;BME280;4358;42.100;25.222;2023-06-24T10:27:27;99957.84;;;36.30;41.53
8641;BME280;4358;42.100;25.222;2023-06-24T10:30:02;99959.03;;;36.54;41.18
8641;BME280;4358;42.100;25.222;2023-06-24T10:32:39;99943.69;;;36.78;40.43
8641;BME280;4358;42.100;25.222;2023-06-24T10:35:07;99949.22;;;36.88;39.94
8641;BME280;4358;42.100;25.222;2023-06-24T10:37:35;99943.72;;;36.99;39.59
8641;BME280;4358;42.100;25.222;2023-06-24T10:40:03;99946.50;;;37.14;39.78
8641;BME280;4358;42.100;25.222;2023-06-24T10:42:32;99934.88;;;37.27;38.80
8641;BME280;4358;42.100;25.222;2023-06-24T10:45:13;99935.44;;;37.09;39.25
8641;BME280;4358;42.100;25.222;2023-06-24T10:47:41;99935.44;;;37.24;38.95
8641;BME280;4358;42.100;25.222;2023-06-24T10:50:11;99935.44;;;37.24;38.94
8641;BME280;4358;42.100;25.222;2023-06-24T10:52:41;99930.44;;;37.51;37.63
8641;BME280;4358;42.100;25.222;2023-06-24T10:55:08;99933.19;;;37.01;37.22
8641;BME280;4358;42.100;25.222;2023-06-24T10:57:35;99934.63;;;37.13;37.88
8641;BME280;4358;42.100;25.222;2023-06-24T11:00:03;99926.56;;;37.12;38.27
8641;BME280;4358;42.100;25.222;2023-06-24T11:02:30;99923.28;;;37.10;35.92
8641;BME280;4358;42.100;25.222;2023-06-24T11:04:58;99913.84;;;37.06;35.92
8641;BME280;4358;42.100;25.222;2023-06-24T11:07:27;99907.09;;;36.56;36.59
8641;BME280;4358;42.100;25.222;2023-06-24T11:09:58;99907.75;;;37.04;35.64
8641;BME280;4358;42.100;25.222;2023-06-24T11:12:26;99904.44;;;37.42;34.26
8641;BME280;4358;42.100;25.222;2023-06-24T11:14:55;99899.47;;;37.34;35.90
8641;BME280;4358;42.100;25.222;2023-06-24T11:17:23;99894.50;;;37.36;35.72
8641;BME280;4358;42.100;25.222;2023-06-24T11:19:52;99891.13;;;36.83;37.28
8641;BME280;4358;42.100;25.222;2023-06-24T11:22:19;99895.56;;;36.89;37.24
8641;BME280;4358;42.100;25.222;2023-06-24T11:24:46;99884.53;;;37.30;37.22
8641;BME280;4358;42.100;25.222;2023-06-24T11:27:14;99876.22;;;37.25;35.63
8641;BME280;4358;42.100;25.222;2023-06-24T11:29:41;99871.81;;;37.09;35.89
8641;BME280;4358;42.100;25.222;2023-06-24T11:32:09;99872.88;;;37.28;35.46
8641;BME280;4358;42.100;25.222;2023-06-24T11:34:36;99867.31;;;37.43;35.14
8641;BME280;4358;42.100;25.222;2023-06-24T11:37:11;99876.97;;;37.81;32.62
8641;BME280;4358;42.100;25.222;2023-06-24T11:39:38;99869.53;;;37.61;32.26
8641;BME280;4358;42.100;25.222;2023-06-24T11:42:06;99857.69;;;37.30;34.19
8641;BME280;4358;42.100;25.222;2023-06-24T11:44:36;99856.22;;;37.53;33.46
8641;BME280;4358;42.100;25.222;2023-06-24T11:47:08;99851.25;;;37.50;33.57
8641;BME280;4358;42.100;25.222;2023-06-24T11:49:48;99847.97;;;37.38;34.50
8641;BME280;4358;42.100;25.222;2023-06-24T11:52:15;99835.84;;;37.09;35.43
8641;BME280;4358;42.100;25.222;2023-06-24T11:54:41;99846.31;;;37.37;35.40
8641;BME280;4358;42.100;25.222;2023-06-24T11:57:09;99836.34;;;36.90;35.96
8641;BME280;4358;42.100;25.222;2023-06-24T11:59:39;99839.16;;;37.26;34.97
8641;BME280;4358;42.100;25.222;2023-06-24T12:02:06;99835.16;;;37.78;35.35
8641;BME280;4358;42.100;25.222;2023-06-24T12:04:33;99840.16;;;37.70;34.65
8641;BME280;4358;42.100;25.222;2023-06-24T12:07:02;99837.94;;;37.72;34.47
8641;BME280;4358;42.100;25.222;2023-06-24T12:09:30;99828.53;;;37.73;34.05
8641;BME280;4358;42.100;25.222;2023-06-24T12:11:56;99823.00;;;37.53;34.47
8641;BME280;4358;42.100;25.222;2023-06-24T12:14:23;99820.88;;;37.25;34.01
8641;BME280;4358;42.100;25.222;2023-06-24T12:16:52;99822.25;;;37.12;34.31
8641;BME280;4358;42.100;25.222;2023-06-24T12:19:18;99826.16;;;37.21;33.66
8641;BME280;4358;42.100;25.222;2023-06-24T12:21:46;99814.41;;;37.65;34.03
8641;BME280;4358;42.100;25.222;2023-06-24T12:24:13;99822.09;;;37.88;33.18
8641;BME280;4358;42.100;25.222;2023-06-24T12:26:40;99819.63;;;37.82;32.89
8641;BME280;4358;42.100;25.222;2023-06-24T12:29:07;99817.34;;;37.99;32.81
8641;BME280;4358;42.100;25.222;2023-06-24T12:31:34;99812.94;;;37.93;33.20
8641;BME280;4358;42.100;25.222;2023-06-24T12:34:02;99810.41;;;37.96;32.45
8641;BME280;4358;42.100;25.222;2023-06-24T12:36:30;99803.53;;;37.89;33.01
8641;BME280;4358;42.100;25.222;2023-06-24T12:38:57;99805.72;;;37.92;32.82
8641;BME280;4358;42.100;25.222;2023-06-24T12:41:24;99803.06;;;37.71;33.12
8641;BME280;4358;42.100;25.222;2023-06-24T12:43:52;99803.03;;;37.77;33.51
8641;BME280;4358;42.100;25.222;2023-06-24T12:46:19;99794.66;;;37.87;32.52
8641;BME280;4358;42.100;25.222;2023-06-24T12:48:46;99796.22;;;38.13;31.85
8641;BME280;4358;42.100;25.222;2023-06-24T12:51:14;99792.28;;;38.24;32.00
8641;BME280;4358;42.100;25.222;2023-06-24T12:53:41;99790.09;;;38.16;32.14
8641;BME280;4358;42.100;25.222;2023-06-24T12:56:08;99781.88;;;38.50;31.74
8641;BME280;4358;42.100;25.222;2023-06-24T12:58:35;99781.03;;;38.49;31.30
8641;BME280;4358;42.100;25.222;2023-06-24T13:01:02;99767.63;;;38.62;31.59
8641;BME280;4358;42.100;25.222;2023-06-24T13:03:28;99770.66;;;38.99;30.61
8641;BME280;4358;42.100;25.222;2023-06-24T13:05:55;99751.69;;;39.06;30.52
8641;BME280;4358;42.100;25.222;2023-06-24T13:08:24;99740.25;;;38.89;31.59